createdAt,value
2022-10-28T00:00:43.217Z,62.02
2022-10-28T00:02:46.005Z,61.87
2022-10-28T00:04:48.831Z,61.88
2022-10-28T00:06:52.843Z,62.26
2022-10-28T00:08:55.952Z,62.13
2022-10-28T00:11:07.005Z,62.19
2022-10-28T00:13:09.820Z,62.11
2022-10-28T00:15:12.512Z,62.12
2022-10-28T00:17:15.256Z,62.46
2022-10-28T00:19:18.046Z,62.33
2022-10-28T00:21:23.589Z,62.43
2022-10-28T00:23:27.726Z,62.10
2022-10-28T00:25:30.578Z,62.15
2022-10-28T00:27:33.278Z,62.32
2022-10-28T00:29:36.103Z,62.41
2022-10-28T00:31:39.609Z,62.35
2022-10-28T00:33:42.371Z,62.33
2022-10-28T00:35:45.273Z,62.37
2022-10-28T00:37:48.004Z,62.68
2022-10-28T00:39:52.067Z,62.37
2022-10-28T00:41:56.481Z,62.43
2022-10-28T00:44:00.789Z,62.74
2022-10-28T00:46:04.717Z,62.78
2022-10-28T00:48:07.791Z,62.68
2022-10-28T00:50:26.397Z,62.74
2022-10-28T00:52:31.553Z,62.62
2022-10-28T00:54:35.083Z,62.96
2022-10-28T00:56:43.897Z,62.75
2022-10-28T00:58:49.697Z,62.89
2022-10-28T01:00:52.444Z,63.02
2022-10-28T01:02:56.557Z,62.80
2022-10-28T01:05:00.083Z,62.96
2022-10-28T01:07:03.418Z,63.00
2022-10-28T01:09:06.464Z,63.02
2022-10-28T01:11:51.282Z,63.03
2022-10-28T01:14:19.303Z,63.01
2022-10-28T01:16:34.566Z,63.05
2022-10-28T01:19:01.955Z,63.29
2022-10-28T01:21:40.309Z,63.08
2022-10-28T01:23:57.619Z,63.15
2022-10-28T01:26:31.214Z,63.05
2022-10-28T01:28:58.516Z,63.10
2022-10-28T01:31:14.688Z,63.07
2022-10-28T01:33:24.667Z,63.17
2022-10-28T01:35:34.508Z,63.08
2022-10-28T01:37:41.639Z,63.22
2022-10-28T01:39:50.523Z,63.46
2022-10-28T01:41:57.472Z,63.35
2022-10-28T01:44:06.121Z,63.14
2022-10-28T01:46:16.319Z,63.14
2022-10-28T01:48:22.898Z,63.33
2022-10-28T01:50:31.727Z,63.38
2022-10-28T01:52:34.854Z,63.35
2022-10-28T01:54:40.075Z,63.44
2022-10-28T01:56:44.648Z,63.21
2022-10-28T01:58:49.392Z,63.23
2022-10-28T02:00:52.912Z,63.60
2022-10-28T02:02:57.286Z,63.51
2022-10-28T02:05:27.932Z,63.38
2022-10-28T02:07:30.709Z,63.30
2022-10-28T02:09:44.244Z,63.27
2022-10-28T02:12:10.212Z,63.41
2022-10-28T02:14:23.760Z,63.49
2022-10-28T02:16:32.909Z,63.47
2022-10-28T02:18:45.694Z,63.69
2022-10-28T02:20:54.459Z,63.42
2022-10-28T02:23:09.074Z,63.45
2022-10-28T02:25:18.283Z,63.28
2022-10-28T02:27:32.020Z,63.21
2022-10-28T02:29:39.304Z,63.56
2022-10-28T02:31:46.316Z,63.29
2022-10-28T02:33:55.538Z,63.47
2022-10-28T02:36:03.616Z,63.49
2022-10-28T02:38:12.579Z,63.17
2022-10-28T02:40:20.545Z,63.31
2022-10-28T02:42:27.311Z,63.11
2022-10-28T02:44:33.830Z,63.42
2022-10-28T02:46:40.376Z,63.35
2022-10-28T02:48:47.563Z,63.38
2022-10-28T02:50:56.855Z,63.31
2022-10-28T02:53:01.545Z,63.46
2022-10-28T02:55:07.111Z,63.17
2022-10-28T02:57:13.777Z,63.61
2022-10-28T02:59:16.981Z,63.07
2022-10-28T03:01:19.828Z,63.12
2022-10-28T03:03:22.640Z,63.39
2022-10-28T03:05:25.484Z,63.30
2022-10-28T03:07:29.611Z,63.31
2022-10-28T03:09:32.317Z,63.41
2022-10-28T03:11:35.097Z,63.40
2022-10-28T03:13:37.821Z,63.34
2022-10-28T03:15:40.623Z,63.29
2022-10-28T03:17:43.376Z,63.30
2022-10-28T03:19:46.227Z,63.33
2022-10-28T03:21:48.930Z,63.37
2022-10-28T03:23:53.021Z,63.37
2022-10-28T03:25:55.709Z,63.43
2022-10-28T03:27:58.418Z,63.54
2022-10-28T03:30:01.203Z,63.27
2022-10-28T03:32:03.997Z,63.35
2022-10-28T03:34:06.675Z,63.44
2022-10-28T03:36:09.533Z,63.39
2022-10-28T03:38:12.261Z,63.71
2022-10-28T03:40:16.369Z,63.35
2022-10-28T03:42:19.132Z,63.34
2022-10-28T03:44:21.887Z,63.44
2022-10-28T03:46:24.623Z,63.63
2022-10-28T03:48:27.339Z,63.46
2022-10-28T03:50:30.059Z,63.60
2022-10-28T03:52:32.752Z,63.29
2022-10-28T03:54:35.466Z,63.44
2022-10-28T03:56:40.510Z,63.33
2022-10-28T03:58:43.387Z,63.63
2022-10-28T04:00:46.252Z,63.41
2022-10-28T04:02:51.241Z,63.67
2022-10-28T04:04:54.276Z,63.23
2022-10-28T04:06:56.905Z,63.59
2022-10-28T04:08:59.831Z,63.51
2022-10-28T04:11:02.514Z,63.62
2022-10-28T04:13:18.095Z,63.59
2022-10-28T04:15:20.881Z,63.31
2022-10-28T04:17:23.583Z,63.75
2022-10-28T04:19:26.472Z,63.70
2022-10-28T04:21:29.343Z,63.54
2022-10-28T04:23:32.192Z,63.75
2022-10-28T04:25:35.106Z,63.54
2022-10-28T04:27:37.856Z,63.67
2022-10-28T04:29:41.912Z,63.74
2022-10-28T04:31:48.589Z,63.56
2022-10-28T04:33:54.384Z,63.97
2022-10-28T04:35:57.151Z,63.88
2022-10-28T04:38:00.020Z,63.65
2022-10-28T04:40:02.814Z,63.67
2022-10-28T04:42:05.643Z,64.05
2022-10-28T04:44:08.658Z,63.72
2022-10-28T04:46:12.747Z,63.69
2022-10-28T04:48:15.729Z,63.76
2022-10-28T04:50:18.404Z,63.85
2022-10-28T04:52:23.022Z,63.86
2022-10-28T04:54:27.804Z,64.07
2022-10-28T04:56:31.042Z,63.77
2022-10-28T04:58:33.790Z,63.79
2022-10-28T05:00:36.673Z,64.02
2022-10-28T05:02:45.237Z,64.01
2022-10-28T05:04:48.934Z,63.82
2022-10-28T05:06:51.788Z,64.06
2022-10-28T05:08:54.846Z,64.00
2022-10-28T05:10:57.714Z,64.15
2022-10-28T05:13:00.465Z,64.21
2022-10-28T05:15:03.278Z,64.19
2022-10-28T05:17:06.113Z,64.25
2022-10-28T05:19:10.443Z,64.15
2022-10-28T05:21:13.136Z,64.37
2022-10-28T05:23:15.829Z,64.27
2022-10-28T05:25:19.182Z,64.50
2022-10-28T05:27:21.893Z,64.27
2022-10-28T05:29:24.604Z,64.43
2022-10-28T05:31:27.302Z,64.40
2022-10-28T05:33:29.988Z,64.47
2022-10-28T05:35:34.296Z,64.66
2022-10-28T05:37:37.121Z,64.40
2022-10-28T05:39:39.798Z,64.49
2022-10-28T05:41:42.525Z,64.53
2022-10-28T05:43:45.248Z,64.75
2022-10-28T05:45:53.552Z,64.59
2022-10-28T05:47:56.424Z,64.64
2022-10-28T05:50:02.039Z,64.67
2022-10-28T05:52:06.451Z,64.65
2022-10-28T05:54:11.593Z,64.81
2022-10-28T05:56:14.364Z,64.72
2022-10-28T05:58:17.602Z,64.64
2022-10-28T06:00:22.256Z,64.89
2022-10-28T06:02:24.982Z,64.87
2022-10-28T06:04:27.880Z,64.93
2022-10-28T06:06:30.719Z,64.69
2022-10-28T06:08:35.028Z,64.92
2022-10-28T06:10:37.801Z,64.74
2022-10-28T06:12:39.124Z,64.95
2022-10-28T06:14:41.870Z,64.86
2022-10-28T06:16:46.731Z,65.02
2022-10-28T06:18:49.483Z,64.99
2022-10-28T06:20:56.265Z,64.95
2022-10-28T06:22:59.107Z,64.96
2022-10-28T06:25:03.724Z,64.85
2022-10-28T06:27:06.572Z,64.87
2022-10-28T06:29:10.861Z,64.83
2022-10-28T06:31:14.190Z,65.02
2022-10-28T06:33:17.271Z,64.80
2022-10-28T06:35:20.097Z,64.94
2022-10-28T06:37:22.885Z,64.83
2022-10-28T06:41:30.669Z,65.06
2022-10-28T06:43:33.516Z,64.95
2022-10-28T06:45:36.194Z,65.12
2022-10-28T06:47:41.658Z,65.39
2022-10-28T06:49:44.590Z,65.12
2022-10-28T06:51:47.269Z,65.18
2022-10-28T06:53:50.296Z,65.11
2022-10-28T06:55:53.894Z,65.07
2022-10-28T06:58:02.651Z,65.28
2022-10-28T07:00:06.823Z,65.21
2022-10-28T07:02:11.408Z,65.23
2022-10-28T07:04:14.505Z,65.36
2022-10-28T07:06:18.443Z,65.28
2022-10-28T07:08:21.267Z,65.30
2022-10-28T07:10:24.059Z,65.24
2022-10-28T07:12:27.934Z,65.13
2022-10-28T07:14:32.347Z,65.38
2022-10-28T07:16:35.325Z,65.12
2022-10-28T07:18:38.102Z,65.37
2022-10-28T07:20:41.100Z,65.37
2022-10-28T07:22:43.987Z,65.39
2022-10-28T07:24:46.782Z,65.28
2022-10-28T07:26:52.012Z,65.43
2022-10-28T07:28:57.212Z,65.44
2022-10-28T07:31:02.970Z,65.24
2022-10-28T07:33:06.202Z,65.46
2022-10-28T07:35:09.467Z,65.40
2022-10-28T07:37:12.941Z,65.30
2022-10-28T07:39:15.728Z,65.14
2022-10-28T07:41:20.206Z,65.47
2022-10-28T07:43:23.015Z,65.36
2022-10-28T07:45:26.195Z,65.13
2022-10-28T07:47:30.303Z,65.41
2022-10-28T07:49:33.104Z,65.16
2022-10-28T07:51:36.045Z,65.03
2022-10-28T07:53:39.184Z,65.02
2022-10-28T07:55:41.933Z,64.99
2022-10-28T07:57:44.655Z,65.23
2022-10-28T07:59:47.586Z,64.94
2022-10-28T08:01:50.480Z,64.83
2022-10-28T08:03:54.725Z,65.08
2022-10-28T08:06:01.445Z,64.91
2022-10-28T08:08:04.200Z,65.13
2022-10-28T08:10:08.473Z,64.97
2022-10-28T08:12:17.483Z,64.96
2022-10-28T08:14:20.562Z,65.27
2022-10-28T08:16:23.357Z,65.14
2022-10-28T08:18:26.303Z,65.23
2022-10-28T08:20:30.592Z,65.14
2022-10-28T08:22:33.338Z,65.05
2022-10-28T08:24:36.757Z,65.16
2022-10-28T08:26:39.454Z,65.03
2022-10-28T08:28:42.479Z,65.19
2022-10-28T08:30:57.159Z,65.17
2022-10-28T08:33:07.251Z,65.28
2022-10-28T08:35:10.562Z,65.45
2022-10-28T08:37:16.179Z,65.44
2022-10-28T08:39:18.948Z,65.31
2022-10-28T08:41:32.110Z,65.62
2022-10-28T08:43:57.156Z,65.50
2022-10-28T08:46:05.469Z,65.25
2022-10-28T08:48:19.694Z,65.36
2022-10-28T08:50:25.893Z,65.42
2022-10-28T08:52:36.424Z,65.67
2022-10-28T08:54:47.143Z,65.53
2022-10-28T08:56:54.881Z,65.77
2022-10-28T08:59:01.224Z,65.42
2022-10-28T09:01:08.061Z,65.53
2022-10-28T09:03:20.464Z,65.58
2022-10-28T09:05:26.264Z,65.66
2022-10-28T09:07:29.351Z,65.52
2022-10-28T09:09:34.365Z,65.72
2022-10-28T09:11:57.665Z,65.82
2022-10-28T09:14:16.340Z,65.93
2022-10-28T09:16:31.069Z,65.56
2022-10-28T09:18:52.389Z,65.92
2022-10-28T09:20:55.557Z,65.84
2022-10-28T09:23:00.524Z,65.74
2022-10-28T09:25:14.497Z,65.89
2022-10-28T09:27:30.855Z,65.74
2022-10-28T09:29:44.526Z,65.84
2022-10-28T09:31:50.787Z,65.95
2022-10-28T09:34:06.697Z,66.01
2022-10-28T09:36:15.281Z,65.98
2022-10-28T09:38:26.446Z,66.22
2022-10-28T09:40:34.921Z,66.33
2022-10-28T09:42:45.689Z,65.97
2022-10-28T09:44:53.200Z,66.26
2022-10-28T09:47:00.355Z,66.15
2022-10-28T09:49:06.449Z,66.17
2022-10-28T09:51:22.444Z,66.27
2022-10-28T09:53:36.066Z,66.05
2022-10-28T09:55:40.569Z,66.32
2022-10-28T09:57:44.089Z,66.29
2022-10-28T09:59:47.696Z,66.44
2022-10-28T10:01:50.556Z,66.45
2022-10-28T10:03:53.611Z,66.41
2022-10-28T10:06:00.051Z,66.32
2022-10-28T10:08:04.667Z,66.46
2022-10-28T10:10:13.465Z,66.46
2022-10-28T10:12:17.977Z,66.51
2022-10-28T10:14:26.594Z,66.75
2022-10-28T10:16:39.901Z,66.66
2022-10-28T10:18:48.361Z,66.51
2022-10-28T10:20:52.915Z,66.42
2022-10-28T10:22:55.906Z,66.78
2022-10-28T10:24:59.180Z,66.73
2022-10-28T10:27:04.996Z,66.88
2022-10-28T10:29:13.446Z,66.80
2022-10-28T10:31:20.932Z,66.66
2022-10-28T10:33:26.515Z,66.70
2022-10-28T10:35:31.640Z,66.79
2022-10-28T10:37:37.095Z,66.39
2022-10-28T10:39:40.193Z,66.55
2022-10-28T10:41:44.708Z,66.70
2022-10-28T10:43:49.785Z,66.61
2022-10-28T10:46:03.193Z,66.52
2022-10-28T10:48:14.804Z,66.38
2022-10-28T10:50:29.268Z,66.56
2022-10-28T10:52:32.350Z,66.61
2022-10-28T10:54:38.471Z,66.57
2022-10-28T10:56:41.681Z,66.43
2022-10-28T10:58:52.557Z,66.60
2022-10-28T11:00:58.993Z,66.33
2022-10-28T11:03:02.864Z,66.57
2022-10-28T11:05:09.606Z,66.47
2022-10-28T11:07:16.713Z,66.50
2022-10-28T11:09:26.465Z,66.67
2022-10-28T11:11:35.237Z,66.71
2022-10-28T11:13:41.005Z,66.53
2022-10-28T11:16:02.623Z,66.69
2022-10-28T11:18:20.562Z,66.58
2022-10-28T11:20:26.045Z,66.48
2022-10-28T11:22:44.405Z,66.53
2022-10-28T11:25:12.289Z,66.55
2022-10-28T11:27:23.946Z,66.87
2022-10-28T11:29:26.967Z,66.58
2022-10-28T11:31:56.529Z,66.65
2022-10-28T11:34:21.353Z,66.53
2022-10-28T11:36:32.849Z,66.55
2022-10-28T11:38:51.121Z,66.70
2022-10-28T11:41:08.219Z,66.79
2022-10-28T11:43:23.505Z,66.41
2022-10-28T11:45:34.822Z,66.60
2022-10-28T11:47:52.509Z,66.52
2022-10-28T11:50:18.120Z,66.52
2022-10-28T11:52:33.795Z,66.64
2022-10-28T11:54:50.786Z,66.54
2022-10-28T11:56:59.800Z,66.57
2022-10-28T11:59:22.479Z,66.62
2022-10-28T12:01:41.268Z,66.49
2022-10-28T12:04:21.573Z,66.50
2022-10-28T12:06:39.084Z,66.57
2022-10-28T12:08:59.346Z,66.35
2022-10-28T12:11:14.541Z,66.68
2022-10-28T12:13:29.116Z,66.64
2022-10-28T12:15:37.299Z,66.27
2022-10-28T12:17:46.771Z,66.60
2022-10-28T12:19:57.936Z,66.71
2022-10-28T12:22:05.816Z,66.28
2022-10-28T12:24:15.834Z,66.39
2022-10-28T12:26:21.085Z,66.43
2022-10-28T12:28:28.916Z,66.60
2022-10-28T12:30:34.349Z,66.21
2022-10-28T12:32:39.358Z,66.52
2022-10-28T12:34:52.013Z,66.70
2022-10-28T12:37:03.088Z,66.35
2022-10-28T12:39:14.041Z,66.72
2022-10-28T12:41:22.217Z,66.46
2022-10-28T12:43:33.569Z,66.38
2022-10-28T12:45:39.317Z,66.01
2022-10-28T12:47:49.009Z,66.52
2022-10-28T12:50:05.646Z,65.97
2022-10-28T12:52:21.368Z,66.10
2022-10-28T12:54:30.374Z,66.27
2022-10-28T12:56:37.295Z,66.31
2022-10-28T12:58:46.710Z,65.97
2022-10-28T13:00:54.154Z,66.04
2022-10-28T13:03:02.322Z,66.17
2022-10-28T13:05:06.027Z,66.05
2022-10-28T13:07:40.075Z,65.85
2022-10-28T13:09:52.583Z,66.03
2022-10-28T13:12:25.540Z,65.94
2022-10-28T13:15:10.250Z,65.92
2022-10-28T13:17:25.738Z,65.53
2022-10-28T13:19:38.581Z,65.93
2022-10-28T13:22:23.002Z,65.56
2022-10-28T13:24:34.565Z,65.38
2022-10-28T13:26:38.390Z,65.45
2022-10-28T13:28:46.081Z,65.45
2022-10-28T13:30:57.845Z,65.72
2022-10-28T13:33:05.380Z,65.56
2022-10-28T13:35:12.655Z,65.54
2022-10-28T13:37:21.269Z,65.53
2022-10-28T13:39:26.207Z,65.35
2022-10-28T13:41:42.064Z,65.09
2022-10-28T13:44:23.592Z,65.15
2022-10-28T13:47:23.832Z,65.39
2022-10-28T13:49:27.722Z,65.22
2022-10-28T13:51:47.367Z,64.92
2022-10-28T13:53:57.637Z,65.18
2022-10-28T13:56:00.682Z,65.27
2022-10-28T13:58:07.760Z,64.79
2022-10-28T14:00:38.658Z,64.88
2022-10-28T14:02:44.105Z,65.13
2022-10-28T14:04:56.788Z,64.90
2022-10-28T14:07:22.458Z,64.79
2022-10-28T14:09:31.017Z,64.77
2022-10-28T14:11:34.002Z,64.99
2022-10-28T14:13:42.125Z,64.87
2022-10-28T14:15:45.419Z,64.89
2022-10-28T14:17:51.319Z,64.88
2022-10-28T14:19:55.649Z,64.96
2022-10-28T14:22:03.099Z,64.96
2022-10-28T14:24:13.625Z,65.01
2022-10-28T14:26:16.505Z,64.74
2022-10-28T14:28:54.783Z,64.84
2022-10-28T14:31:49.271Z,64.78
2022-10-28T14:34:41.916Z,65.10
2022-10-28T14:36:54.321Z,64.81
2022-10-28T14:39:26.895Z,65.00
2022-10-28T14:41:58.939Z,64.97
2022-10-28T14:44:11.697Z,64.98
2022-10-28T14:46:29.403Z,65.30
2022-10-28T14:48:54.156Z,65.20
2022-10-28T14:50:58.410Z,65.56
2022-10-28T14:53:04.590Z,65.25
2022-10-28T14:55:09.430Z,65.45
2022-10-28T14:57:12.341Z,65.19
2022-10-28T14:59:26.498Z,65.54
2022-10-28T15:01:48.658Z,65.59
2022-10-28T15:03:54.443Z,65.63
2022-10-28T15:05:57.307Z,65.40
2022-10-28T15:08:04.183Z,65.42
2022-10-28T15:10:16.265Z,65.34
2022-10-28T15:12:19.175Z,65.80
2022-10-28T15:14:29.765Z,65.53
2022-10-28T15:16:34.822Z,65.98
2022-10-28T15:18:37.664Z,66.00
2022-10-28T15:20:40.416Z,65.88
2022-10-28T15:22:44.499Z,65.92
2022-10-28T15:24:55.614Z,65.74
2022-10-28T15:26:59.026Z,65.88
2022-10-28T15:29:01.855Z,65.95
2022-10-28T15:31:06.429Z,65.81
2022-10-28T15:33:20.159Z,65.97
2022-10-28T15:35:38.143Z,66.10
2022-10-28T15:37:41.006Z,66.03
2022-10-28T15:39:45.735Z,66.04
2022-10-28T15:41:52.492Z,66.09
2022-10-28T15:43:57.209Z,66.49
2022-10-28T15:46:11.914Z,66.31
2022-10-28T15:48:20.519Z,66.44
2022-10-28T15:50:31.918Z,66.37
2022-10-28T15:52:42.846Z,66.39
2022-10-28T15:54:55.457Z,66.19
2022-10-28T15:56:59.738Z,66.45
2022-10-28T15:59:08.924Z,66.42
2022-10-28T16:01:29.694Z,66.39
2022-10-28T16:03:43.575Z,66.43
2022-10-28T16:05:47.546Z,66.51
2022-10-28T16:07:50.399Z,66.18
2022-10-28T16:09:53.143Z,66.08
2022-10-28T16:11:58.569Z,66.52
2022-10-28T16:14:06.931Z,66.28
2022-10-28T16:16:13.665Z,66.29
2022-10-28T16:18:17.874Z,66.39
2022-10-28T16:20:23.633Z,66.38
2022-10-28T16:22:29.098Z,66.36
2022-10-28T16:24:31.798Z,66.60
2022-10-28T16:26:34.757Z,66.45
2022-10-28T16:28:38.145Z,66.49
2022-10-28T16:30:42.917Z,66.25
2022-10-28T16:32:48.134Z,66.41
2022-10-28T16:34:52.366Z,66.24
2022-10-28T16:36:55.075Z,66.56
2022-10-28T16:38:57.780Z,66.64
2022-10-28T16:41:01.722Z,66.24
2022-10-28T16:43:04.509Z,66.19
2022-10-28T16:45:08.611Z,66.34
2022-10-28T16:47:13.704Z,66.33
2022-10-28T16:49:16.588Z,66.55
2022-10-28T16:51:20.756Z,66.20
2022-10-28T16:53:24.258Z,66.21
2022-10-28T16:55:27.483Z,66.32
2022-10-28T16:57:30.188Z,66.44
2022-10-28T16:59:33.097Z,66.36
2022-10-28T17:01:35.990Z,66.32
2022-10-28T17:03:38.919Z,66.19
2022-10-28T17:05:42.646Z,66.42
2022-10-28T17:07:46.721Z,66.29
2022-10-28T17:09:50.170Z,66.20
2022-10-28T17:11:52.905Z,66.41
2022-10-28T17:13:55.600Z,66.30
2022-10-28T17:15:58.300Z,66.21
2022-10-28T17:18:01.261Z,66.16
2022-10-28T17:20:04.364Z,66.21
2022-10-28T17:22:09.246Z,66.28
2022-10-28T17:24:14.686Z,66.36
2022-10-28T17:26:17.589Z,66.02
2022-10-28T17:28:20.453Z,66.24
2022-10-28T17:30:23.326Z,66.49
2022-10-28T17:32:26.120Z,66.24
2022-10-28T17:34:28.625Z,66.29
2022-10-28T17:36:32.069Z,66.63
2022-10-28T17:38:34.907Z,66.25
2022-10-28T17:40:38.986Z,66.49
2022-10-28T17:42:41.960Z,66.31
2022-10-28T17:44:44.663Z,66.21
2022-10-28T17:46:49.325Z,66.65
2022-10-28T17:48:52.106Z,66.17
2022-10-28T17:50:55.396Z,66.55
2022-10-28T17:52:58.417Z,66.57
2022-10-28T17:55:01.401Z,66.23
2022-10-28T17:57:05.598Z,66.33
2022-10-28T17:59:08.793Z,66.65
2022-10-28T18:01:11.992Z,66.28
2022-10-28T18:03:15.263Z,66.50
2022-10-28T18:05:18.142Z,66.47
2022-10-28T18:07:21.122Z,66.68
2022-10-28T18:09:24.048Z,66.53
2022-10-28T18:11:27.594Z,66.51
2022-10-28T18:13:34.045Z,66.48
2022-10-28T18:15:38.319Z,66.42
2022-10-28T18:17:41.173Z,66.53
2022-10-28T18:19:43.939Z,66.40
2022-10-28T18:21:46.765Z,66.52
2022-10-28T18:23:52.774Z,66.48
2022-10-28T18:25:59.669Z,66.73
2022-10-28T18:28:05.919Z,66.59
2022-10-28T18:30:11.095Z,66.53
2022-10-28T18:32:13.814Z,66.72
2022-10-28T18:34:16.571Z,66.67
2022-10-28T18:36:21.708Z,66.40
2022-10-28T18:38:24.530Z,66.34
2022-10-28T18:40:27.671Z,66.57
2022-10-28T18:42:30.652Z,66.44
2022-10-28T18:44:34.107Z,66.53
2022-10-28T18:46:38.732Z,66.32
2022-10-28T18:48:42.375Z,66.73
2022-10-28T18:50:48.444Z,66.33
2022-10-28T18:52:52.538Z,66.45
2022-10-28T18:54:55.504Z,66.43
2022-10-28T18:56:58.294Z,66.21
2022-10-28T18:59:03.369Z,66.43
2022-10-28T19:01:07.686Z,66.22
2022-10-28T19:03:15.781Z,66.28
2022-10-28T19:05:18.826Z,66.42
2022-10-28T19:07:21.601Z,66.50
2022-10-28T19:09:24.352Z,66.17
2022-10-28T19:11:30.090Z,66.01
2022-10-28T19:13:34.366Z,66.20
2022-10-28T19:15:42.165Z,66.26
2022-10-28T19:17:45.047Z,66.06
2022-10-28T19:19:49.152Z,66.28
2022-10-28T19:21:52.147Z,66.13
2022-10-28T19:23:55.309Z,66.09
2022-10-28T19:25:58.818Z,65.94
2022-10-28T19:28:01.923Z,66.10
2022-10-28T19:30:07.755Z,65.95
2022-10-28T19:32:13.343Z,66.09
2022-10-28T19:34:16.194Z,65.82
2022-10-28T19:36:22.499Z,66.11
2022-10-28T19:38:25.183Z,65.74
2022-10-28T19:40:28.004Z,65.81
2022-10-28T19:42:31.095Z,65.85
2022-10-28T19:44:34.073Z,65.96
2022-10-28T19:46:37.374Z,65.55
2022-10-28T19:48:41.385Z,65.74
2022-10-28T19:50:50.317Z,65.82
2022-10-28T19:52:54.783Z,65.53
2022-10-28T19:54:58.922Z,65.50
2022-10-28T19:57:03.056Z,65.56
2022-10-28T19:59:07.425Z,65.25
2022-10-28T20:01:12.294Z,65.40
2022-10-28T20:03:15.529Z,65.41
2022-10-28T20:05:18.381Z,65.46
2022-10-28T20:07:23.386Z,65.29
2022-10-28T20:09:29.126Z,65.21
2022-10-28T20:11:35.044Z,65.18
2022-10-28T20:13:38.542Z,65.03
2022-10-28T20:15:41.286Z,65.30
2022-10-28T20:17:44.378Z,65.22
2022-10-28T20:19:47.368Z,65.09
2022-10-28T20:21:50.749Z,65.13
2022-10-28T20:23:55.750Z,64.78
2022-10-28T20:26:00.380Z,65.03
2022-10-28T20:28:03.219Z,64.79
2022-10-28T20:30:07.078Z,64.75
2022-10-28T20:32:09.788Z,65.04
2022-10-28T20:34:12.575Z,64.76
2022-10-28T20:36:26.235Z,65.09
2022-10-28T20:38:29.397Z,64.77
2022-10-28T20:40:34.278Z,64.82
2022-10-28T20:42:38.356Z,64.89
2022-10-28T20:44:41.182Z,64.85
2022-10-28T20:46:47.698Z,64.66
2022-10-28T20:48:50.729Z,64.94
2022-10-28T20:50:55.476Z,64.78
2022-10-28T20:52:58.522Z,64.74
2022-10-28T20:55:01.333Z,64.74
2022-10-28T20:57:04.165Z,64.76
2022-10-28T20:59:08.817Z,64.81
2022-10-28T21:01:14.787Z,64.57
2022-10-28T21:03:18.339Z,64.86
2022-10-28T21:05:21.264Z,64.46
2022-10-28T21:07:23.950Z,64.70
2022-10-28T21:09:26.715Z,64.59
2022-10-28T21:11:29.843Z,64.44
2022-10-28T21:13:33.181Z,64.32
2022-10-28T21:15:38.418Z,64.29
2022-10-28T21:17:41.190Z,64.75
2022-10-28T21:19:43.876Z,64.67
2022-10-28T21:21:46.733Z,64.59
2022-10-28T21:23:49.803Z,64.50
2022-10-28T21:25:55.826Z,64.41
2022-10-28T21:27:59.076Z,64.36
2022-10-28T21:30:01.935Z,64.58
2022-10-28T21:32:06.712Z,64.62
2022-10-28T21:34:09.439Z,64.36
2022-10-28T21:36:14.049Z,64.29
2022-10-28T21:38:18.038Z,64.21
